sensor_id;sensor_type;location;lat;lon;timestamp;P1;durP1;ratioP1;P2;durP2;ratioP2
8252;SDS011;61313;48.396;10.008;2023-10-19T00:00:54;23.87;;;19.37;;
8252;SDS011;61313;48.396;10.008;2023-10-19T00:03:21;22.73;;;20.20;;
8252;SDS011;61313;48.396;10.008;2023-10-19T00:05:48;22.93;;;19.90;;
8252;SDS011;61313;48.396;10.008;2023-10-19T00:08:14;23.67;;;19.17;;
8252;SDS011;61313;48.396;10.008;2023-10-19T00:10:42;22.23;;;19.97;;
8252;SDS011;61313;48.396;10.008;2023-10-19T00:13:09;23.73;;;21.23;;
8252;SDS011;61313;48.396;10.008;2023-10-19T00:15:40;24.57;;;21.37;;
8252;SDS011;61313;48.396;10.008;2023-10-19T00:18:18;25.53;;;22.57;;
8252;SDS011;61313;48.396;10.008;2023-10-19T00:20:49;26.83;;;21.80;;
8252;SDS011;61313;48.396;10.008;2023-10-19T00:23:24;25.10;;;22.40;;
8252;SDS011;61313;48.396;10.008;2023-10-19T00:26:00;28.37;;;22.13;;
8252;SDS011;61313;48.396;10.008;2023-10-19T00:28:34;28.67;;;22.40;;
8252;SDS011;61313;48.396;10.008;2023-10-19T00:31:01;31.43;;;22.73;;
8252;SDS011;61313;48.396;10.008;2023-10-19T00:33:33;26.50;;;22.10;;
8252;SDS011;61313;48.396;10.008;2023-10-19T00:36:04;28.03;;;24.17;;
8252;SDS011;61313;48.396;10.008;2023-10-19T00:38:33;26.80;;;23.13;;
8252;SDS011;61313;48.396;10.008;2023-10-19T00:41:02;31.70;;;23.83;;
8252;SDS011;61313;48.396;10.008;2023-10-19T00:43:42;27.13;;;23.80;;
8252;SDS011;61313;48.396;10.008;2023-10-19T00:46:12;29.93;;;25.90;;
8252;SDS011;61313;48.396;10.008;2023-10-19T00:48:54;27.63;;;23.90;;
8252;SDS011;61313;48.396;10.008;2023-10-19T00:51:24;28.77;;;23.47;;
8252;SDS011;61313;48.396;10.008;2023-10-19T00:54:02;25.90;;;22.53;;
8252;SDS011;61313;48.396;10.008;2023-10-19T00:56:36;26.70;;;22.70;;
8252;SDS011;61313;48.396;10.008;2023-10-19T00:59:05;25.90;;;22.00;;
8252;SDS011;61313;48.396;10.008;2023-10-19T01:01:42;28.63;;;24.27;;
8252;SDS011;61313;48.396;10.008;2023-10-19T01:04:13;28.77;;;23.20;;
8252;SDS011;61313;48.396;10.008;2023-10-19T01:06:47;25.13;;;22.40;;
8252;SDS011;61313;48.396;10.008;2023-10-19T01:09:36;27.70;;;22.40;;
8252;SDS011;61313;48.396;10.008;2023-10-19T01:12:04;28.57;;;22.30;;
8252;SDS011;61313;48.396;10.008;2023-10-19T01:15:02;23.60;;;21.10;;
8252;SDS011;61313;48.396;10.008;2023-10-19T01:17:42;32.73;;;24.00;;
8252;SDS011;61313;48.396;10.008;2023-10-19T01:20:09;28.03;;;23.77;;
8252;SDS011;61313;48.396;10.008;2023-10-19T01:22:51;26.60;;;22.37;;
8252;SDS011;61313;48.396;10.008;2023-10-19T01:25:32;27.70;;;23.80;;
8252;SDS011;61313;48.396;10.008;2023-10-19T01:28:16;29.50;;;24.40;;
8252;SDS011;61313;48.396;10.008;2023-10-19T01:30:42;27.43;;;23.37;;
8252;SDS011;61313;48.396;10.008;2023-10-19T01:33:16;26.13;;;20.70;;
8252;SDS011;61313;48.396;10.008;2023-10-19T01:35:43;26.23;;;22.07;;
8252;SDS011;61313;48.396;10.008;2023-10-19T01:38:27;25.93;;;23.23;;
8252;SDS011;61313;48.396;10.008;2023-10-19T01:40:56;23.50;;;20.90;;
8252;SDS011;61313;48.396;10.008;2023-10-19T01:43:24;27.43;;;21.90;;
8252;SDS011;61313;48.396;10.008;2023-10-19T01:45:53;27.77;;;23.03;;
8252;SDS011;61313;48.396;10.008;2023-10-19T01:48:22;24.17;;;21.57;;
8252;SDS011;61313;48.396;10.008;2023-10-19T01:50:53;26.77;;;22.60;;
8252;SDS011;61313;48.396;10.008;2023-10-19T01:53:18;28.67;;;22.27;;
8252;SDS011;61313;48.396;10.008;2023-10-19T01:55:47;23.37;;;20.50;;
8252;SDS011;61313;48.396;10.008;2023-10-19T01:58:13;23.40;;;20.97;;
8252;SDS011;61313;48.396;10.008;2023-10-19T02:00:40;26.90;;;21.60;;
8252;SDS011;61313;48.396;10.008;2023-10-19T02:03:09;24.40;;;21.00;;
8252;SDS011;61313;48.396;10.008;2023-10-19T02:05:34;30.10;;;21.57;;
8252;SDS011;61313;48.396;10.008;2023-10-19T02:08:07;22.37;;;20.00;;
8252;SDS011;61313;48.396;10.008;2023-10-19T02:10:33;27.00;;;21.83;;
8252;SDS011;61313;48.396;10.008;2023-10-19T02:13:00;24.83;;;20.73;;
8252;SDS011;61313;48.396;10.008;2023-10-19T02:15:28;26.57;;;21.40;;
8252;SDS011;61313;48.396;10.008;2023-10-19T02:17:54;28.83;;;21.30;;
8252;SDS011;61313;48.396;10.008;2023-10-19T02:20:20;27.00;;;23.07;;
8252;SDS011;61313;48.396;10.008;2023-10-19T02:22:49;23.33;;;20.17;;
8252;SDS011;61313;48.396;10.008;2023-10-19T02:25:17;25.10;;;21.17;;
8252;SDS011;61313;48.396;10.008;2023-10-19T02:27:43;24.53;;;21.20;;
8252;SDS011;61313;48.396;10.008;2023-10-19T02:30:10;26.20;;;21.13;;
8252;SDS011;61313;48.396;10.008;2023-10-19T02:32:36;24.17;;;20.27;;
8252;SDS011;61313;48.396;10.008;2023-10-19T02:35:02;27.30;;;20.47;;
8252;SDS011;61313;48.396;10.008;2023-10-19T02:37:28;23.33;;;20.17;;
8252;SDS011;61313;48.396;10.008;2023-10-19T02:39:53;28.87;;;21.77;;
8252;SDS011;61313;48.396;10.008;2023-10-19T02:42:19;25.00;;;21.27;;
8252;SDS011;61313;48.396;10.008;2023-10-19T02:44:47;26.83;;;21.10;;
8252;SDS011;61313;48.396;10.008;2023-10-19T02:47:15;25.27;;;22.20;;
8252;SDS011;61313;48.396;10.008;2023-10-19T02:49:42;25.43;;;21.23;;
8252;SDS011;61313;48.396;10.008;2023-10-19T02:52:09;22.87;;;20.23;;
8252;SDS011;61313;48.396;10.008;2023-10-19T02:54:38;26.83;;;21.10;;
8252;SDS011;61313;48.396;10.008;2023-10-19T02:57:03;26.70;;;22.43;;
8252;SDS011;61313;48.396;10.008;2023-10-19T02:59:32;23.60;;;20.37;;
8252;SDS011;61313;48.396;10.008;2023-10-19T03:01:58;27.40;;;23.50;;
8252;SDS011;61313;48.396;10.008;2023-10-19T03:04:36;25.60;;;20.40;;
8252;SDS011;61313;48.396;10.008;2023-10-19T03:07:02;27.00;;;21.00;;
8252;SDS011;61313;48.396;10.008;2023-10-19T03:09:30;26.33;;;20.80;;
8252;SDS011;61313;48.396;10.008;2023-10-19T03:12:01;25.13;;;22.43;;
8252;SDS011;61313;48.396;10.008;2023-10-19T03:14:34;31.80;;;22.50;;
8252;SDS011;61313;48.396;10.008;2023-10-19T03:17:00;27.63;;;21.80;;
8252;SDS011;61313;48.396;10.008;2023-10-19T03:19:25;28.63;;;21.77;;
8252;SDS011;61313;48.396;10.008;2023-10-19T03:21:53;27.23;;;21.20;;
8252;SDS011;61313;48.396;10.008;2023-10-19T03:24:20;23.50;;;20.40;;
8252;SDS011;61313;48.396;10.008;2023-10-19T03:27:10;26.07;;;20.60;;
8252;SDS011;61313;48.396;10.008;2023-10-19T03:29:43;36.63;;;21.00;;
8252;SDS011;61313;48.396;10.008;2023-10-19T03:32:13;27.77;;;21.57;;
8252;SDS011;61313;48.396;10.008;2023-10-19T03:34:41;32.03;;;22.13;;
8252;SDS011;61313;48.396;10.008;2023-10-19T03:37:12;24.17;;;21.43;;
8252;SDS011;61313;48.396;10.008;2023-10-19T03:39:39;27.47;;;23.80;;
8252;SDS011;61313;48.396;10.008;2023-10-19T03:42:05;25.93;;;22.07;;
8252;SDS011;61313;48.396;10.008;2023-10-19T03:44:32;26.60;;;22.50;;
8252;SDS011;61313;48.396;10.008;2023-10-19T03:47:13;26.23;;;20.70;;
8252;SDS011;61313;48.396;10.008;2023-10-19T03:49:43;31.97;;;24.93;;
8252;SDS011;61313;48.396;10.008;2023-10-19T03:52:09;28.50;;;23.70;;
8252;SDS011;61313;48.396;10.008;2023-10-19T03:54:34;26.30;;;21.23;;
8252;SDS011;61313;48.396;10.008;2023-10-19T03:57:05;23.27;;;20.30;;
8252;SDS011;61313;48.396;10.008;2023-10-19T03:59:37;26.43;;;21.17;;
8252;SDS011;61313;48.396;10.008;2023-10-19T04:02:06;27.40;;;21.80;;
8252;SDS011;61313;48.396;10.008;2023-10-19T04:04:35;24.17;;;21.03;;
8252;SDS011;61313;48.396;10.008;2023-10-19T04:07:01;24.47;;;21.77;;
8252;SDS011;61313;48.396;10.008;2023-10-19T04:09:35;29.47;;;21.30;;
8252;SDS011;61313;48.396;10.008;2023-10-19T04:12:14;26.43;;;21.50;;
8252;SDS011;61313;48.396;10.008;2023-10-19T04:14:42;27.40;;;21.43;;
8252;SDS011;61313;48.396;10.008;2023-10-19T04:17:07;32.33;;;21.90;;
8252;SDS011;61313;48.396;10.008;2023-10-19T04:19:37;25.30;;;19.47;;
8252;SDS011;61313;48.396;10.008;2023-10-19T04:22:04;26.30;;;20.07;;
8252;SDS011;61313;48.396;10.008;2023-10-19T04:24:29;24.20;;;20.90;;
8252;SDS011;61313;48.396;10.008;2023-10-19T04:26:58;25.87;;;20.70;;
8252;SDS011;61313;48.396;10.008;2023-10-19T04:29:24;21.93;;;18.90;;
8252;SDS011;61313;48.396;10.008;2023-10-19T04:31:52;26.43;;;20.60;;
8252;SDS011;61313;48.396;10.008;2023-10-19T04:34:20;26.97;;;23.80;;
8252;SDS011;61313;48.396;10.008;2023-10-19T04:36:49;26.93;;;21.90;;
8252;SDS011;61313;48.396;10.008;2023-10-19T04:39:15;24.97;;;20.63;;
8252;SDS011;61313;48.396;10.008;2023-10-19T04:41:44;25.10;;;21.30;;
8252;SDS011;61313;48.396;10.008;2023-10-19T04:44:10;25.20;;;20.90;;
8252;SDS011;61313;48.396;10.008;2023-10-19T04:46:35;23.97;;;20.93;;
8252;SDS011;61313;48.396;10.008;2023-10-19T04:49:01;28.20;;;20.90;;
8252;SDS011;61313;48.396;10.008;2023-10-19T04:51:28;23.37;;;19.60;;
8252;SDS011;61313;48.396;10.008;2023-10-19T04:53:54;25.63;;;22.87;;
8252;SDS011;61313;48.396;10.008;2023-10-19T04:56:20;26.70;;;22.07;;
8252;SDS011;61313;48.396;10.008;2023-10-19T04:58:45;29.87;;;21.97;;
8252;SDS011;61313;48.396;10.008;2023-10-19T05:01:12;25.87;;;20.03;;
8252;SDS011;61313;48.396;10.008;2023-10-19T05:03:37;31.73;;;20.83;;
8252;SDS011;61313;48.396;10.008;2023-10-19T05:06:03;26.17;;;20.57;;
8252;SDS011;61313;48.396;10.008;2023-10-19T05:08:29;23.63;;;19.40;;
8252;SDS011;61313;48.396;10.008;2023-10-19T05:10:55;26.97;;;20.57;;
8252;SDS011;61313;48.396;10.008;2023-10-19T05:13:24;24.03;;;21.50;;
8252;SDS011;61313;48.396;10.008;2023-10-19T05:15:51;23.50;;;19.57;;
8252;SDS011;61313;48.396;10.008;2023-10-19T05:18:18;24.03;;;21.43;;
8252;SDS011;61313;48.396;10.008;2023-10-19T05:20:45;24.10;;;21.50;;
8252;SDS011;61313;48.396;10.008;2023-10-19T05:23:11;26.57;;;20.07;;
8252;SDS011;61313;48.396;10.008;2023-10-19T05:25:38;24.07;;;21.37;;
8252;SDS011;61313;48.396;10.008;2023-10-19T05:28:04;25.80;;;21.93;;
8252;SDS011;61313;48.396;10.008;2023-10-19T05:30:33;36.40;;;20.80;;
8252;SDS011;61313;48.396;10.008;2023-10-19T05:33:00;26.33;;;19.93;;
8252;SDS011;61313;48.396;10.008;2023-10-19T05:35:31;34.33;;;20.87;;
8252;SDS011;61313;48.396;10.008;2023-10-19T05:38:05;26.03;;;21.90;;
8252;SDS011;61313;48.396;10.008;2023-10-19T05:40:33;23.20;;;19.87;;
8252;SDS011;61313;48.396;10.008;2023-10-19T05:43:00;21.67;;;19.40;;
8252;SDS011;61313;48.396;10.008;2023-10-19T05:45:27;24.20;;;20.83;;
8252;SDS011;61313;48.396;10.008;2023-10-19T05:47:54;25.27;;;19.20;;
8252;SDS011;61313;48.396;10.008;2023-10-19T05:50:20;22.60;;;20.17;;
8252;SDS011;61313;48.396;10.008;2023-10-19T05:52:45;34.17;;;22.90;;
8252;SDS011;61313;48.396;10.008;2023-10-19T05:55:12;24.50;;;21.90;;
8252;SDS011;61313;48.396;10.008;2023-10-19T05:57:38;24.33;;;20.93;;
8252;SDS011;61313;48.396;10.008;2023-10-19T06:00:08;49.30;;;25.37;;
8252;SDS011;61313;48.396;10.008;2023-10-19T06:02:47;26.90;;;19.80;;
8252;SDS011;61313;48.396;10.008;2023-10-19T06:05:14;24.97;;;20.70;;
8252;SDS011;61313;48.396;10.008;2023-10-19T06:07:41;48.67;;;21.67;;
8252;SDS011;61313;48.396;10.008;2023-10-19T06:10:08;30.83;;;20.03;;
8252;SDS011;61313;48.396;10.008;2023-10-19T06:12:40;40.90;;;20.23;;
8252;SDS011;61313;48.396;10.008;2023-10-19T06:15:06;23.23;;;20.20;;
8252;SDS011;61313;48.396;10.008;2023-10-19T06:17:33;21.00;;;18.80;;
8252;SDS011;61313;48.396;10.008;2023-10-19T06:19:58;22.90;;;19.43;;
8252;SDS011;61313;48.396;10.008;2023-10-19T06:22:23;25.03;;;18.20;;
8252;SDS011;61313;48.396;10.008;2023-10-19T06:24:49;22.53;;;20.23;;
8252;SDS011;61313;48.396;10.008;2023-10-19T06:27:14;22.40;;;20.10;;
8252;SDS011;61313;48.396;10.008;2023-10-19T06:29:39;22.57;;;19.50;;
8252;SDS011;61313;48.396;10.008;2023-10-19T06:32:05;24.93;;;17.80;;
8252;SDS011;61313;48.396;10.008;2023-10-19T06:34:30;22.43;;;17.93;;
8252;SDS011;61313;48.396;10.008;2023-10-19T06:36:57;20.33;;;18.23;;
8252;SDS011;61313;48.396;10.008;2023-10-19T06:39:23;21.97;;;19.00;;
8252;SDS011;61313;48.396;10.008;2023-10-19T06:41:48;20.20;;;17.37;;
8252;SDS011;61313;48.396;10.008;2023-10-19T06:44:14;22.93;;;19.67;;
8252;SDS011;61313;48.396;10.008;2023-10-19T06:46:41;18.97;;;17.03;;
8252;SDS011;61313;48.396;10.008;2023-10-19T06:49:08;22.30;;;18.20;;
8252;SDS011;61313;48.396;10.008;2023-10-19T06:51:34;20.90;;;18.70;;
8252;SDS011;61313;48.396;10.008;2023-10-19T06:53:59;20.83;;;18.67;;
8252;SDS011;61313;48.396;10.008;2023-10-19T06:56:25;22.67;;;18.10;;
8252;SDS011;61313;48.396;10.008;2023-10-19T06:58:51;23.97;;;19.00;;
8252;SDS011;61313;48.396;10.008;2023-10-19T07:01:16;22.27;;;16.63;;
8252;SDS011;61313;48.396;10.008;2023-10-19T07:03:43;26.17;;;19.23;;
8252;SDS011;61313;48.396;10.008;2023-10-19T07:06:09;20.40;;;18.30;;
8252;SDS011;61313;48.396;10.008;2023-10-19T07:08:39;21.80;;;18.40;;
8252;SDS011;61313;48.396;10.008;2023-10-19T07:11:06;23.63;;;19.30;;
8252;SDS011;61313;48.396;10.008;2023-10-19T07:13:32;22.77;;;18.63;;
8252;SDS011;61313;48.396;10.008;2023-10-19T07:15:58;24.27;;;17.53;;
8252;SDS011;61313;48.396;10.008;2023-10-19T07:18:24;24.80;;;19.33;;
8252;SDS011;61313;48.396;10.008;2023-10-19T07:20:49;24.53;;;18.90;;
8252;SDS011;61313;48.396;10.008;2023-10-19T07:23:15;31.20;;;20.03;;
8252;SDS011;61313;48.396;10.008;2023-10-19T07:25:46;33.90;;;18.93;;
8252;SDS011;61313;48.396;10.008;2023-10-19T07:28:13;27.43;;;18.77;;
8252;SDS011;61313;48.396;10.008;2023-10-19T07:30:43;22.00;;;17.80;;
8252;SDS011;61313;48.396;10.008;2023-10-19T07:33:09;20.87;;;18.37;;
8252;SDS011;61313;48.396;10.008;2023-10-19T07:35:36;21.47;;;19.10;;
8252;SDS011;61313;48.396;10.008;2023-10-19T07:38:04;20.23;;;18.00;;
8252;SDS011;61313;48.396;10.008;2023-10-19T07:40:30;21.63;;;17.80;;
8252;SDS011;61313;48.396;10.008;2023-10-19T07:42:55;21.37;;;18.17;;
8252;SDS011;61313;48.396;10.008;2023-10-19T07:45:21;22.00;;;18.27;;
8252;SDS011;61313;48.396;10.008;2023-10-19T07:47:47;22.17;;;19.00;;
8252;SDS011;61313;48.396;10.008;2023-10-19T07:50:12;23.60;;;19.47;;
8252;SDS011;61313;48.396;10.008;2023-10-19T07:52:41;23.13;;;19.10;;
8252;SDS011;61313;48.396;10.008;2023-10-19T07:55:12;23.47;;;20.90;;
8252;SDS011;61313;48.396;10.008;2023-10-19T07:57:38;21.00;;;17.70;;
8252;SDS011;61313;48.396;10.008;2023-10-19T08:00:05;21.23;;;18.93;;
8252;SDS011;61313;48.396;10.008;2023-10-19T08:02:33;19.57;;;17.17;;
8252;SDS011;61313;48.396;10.008;2023-10-19T08:05:00;22.30;;;19.43;;
8252;SDS011;61313;48.396;10.008;2023-10-19T08:07:27;20.00;;;17.87;;
8252;SDS011;61313;48.396;10.008;2023-10-19T08:09:53;20.00;;;17.83;;
8252;SDS011;61313;48.396;10.008;2023-10-19T08:12:19;21.03;;;18.73;;
8252;SDS011;61313;48.396;10.008;2023-10-19T08:14:47;20.90;;;18.63;;
8252;SDS011;61313;48.396;10.008;2023-10-19T08:17:13;20.33;;;18.00;;
8252;SDS011;61313;48.396;10.008;2023-10-19T08:19:39;19.43;;;17.30;;
8252;SDS011;61313;48.396;10.008;2023-10-19T08:22:05;22.13;;;19.17;;
8252;SDS011;61313;48.396;10.008;2023-10-19T08:24:30;27.33;;;20.13;;
8252;SDS011;61313;48.396;10.008;2023-10-19T08:27:00;21.80;;;19.17;;
8252;SDS011;61313;48.396;10.008;2023-10-19T08:29:25;22.00;;;19.10;;
8252;SDS011;61313;48.396;10.008;2023-10-19T08:31:51;21.33;;;19.17;;
8252;SDS011;61313;48.396;10.008;2023-10-19T08:34:16;22.27;;;18.93;;
8252;SDS011;61313;48.396;10.008;2023-10-19T08:36:42;22.87;;;19.50;;
8252;SDS011;61313;48.396;10.008;2023-10-19T08:39:08;29.37;;;21.87;;
8252;SDS011;61313;48.396;10.008;2023-10-19T08:41:37;23.73;;;20.27;;
8252;SDS011;61313;48.396;10.008;2023-10-19T08:44:07;21.30;;;18.07;;
8252;SDS011;61313;48.396;10.008;2023-10-19T08:46:41;24.30;;;19.10;;
8252;SDS011;61313;48.396;10.008;2023-10-19T08:49:12;22.20;;;18.80;;
8252;SDS011;61313;48.396;10.008;2023-10-19T08:51:38;23.17;;;20.70;;
8252;SDS011;61313;48.396;10.008;2023-10-19T08:54:07;22.00;;;18.83;;
8252;SDS011;61313;48.396;10.008;2023-10-19T08:56:35;21.60;;;17.80;;
8252;SDS011;61313;48.396;10.008;2023-10-19T08:59:01;22.73;;;19.57;;
8252;SDS011;61313;48.396;10.008;2023-10-19T09:01:27;22.57;;;19.90;;
8252;SDS011;61313;48.396;10.008;2023-10-19T09:03:56;22.50;;;19.10;;
8252;SDS011;61313;48.396;10.008;2023-10-19T09:06:22;26.20;;;20.23;;
8252;SDS011;61313;48.396;10.008;2023-10-19T09:08:47;20.10;;;16.97;;
8252;SDS011;61313;48.396;10.008;2023-10-19T09:11:14;21.17;;;18.27;;
8252;SDS011;61313;48.396;10.008;2023-10-19T09:13:44;23.03;;;19.00;;
8252;SDS011;61313;48.396;10.008;2023-10-19T09:16:17;23.70;;;19.37;;
8252;SDS011;61313;48.396;10.008;2023-10-19T09:18:44;21.63;;;19.33;;
8252;SDS011;61313;48.396;10.008;2023-10-19T09:21:14;26.23;;;19.80;;
8252;SDS011;61313;48.396;10.008;2023-10-19T09:23:50;32.60;;;19.50;;
8252;SDS011;61313;48.396;10.008;2023-10-19T09:26:17;22.77;;;19.53;;
8252;SDS011;61313;48.396;10.008;2023-10-19T09:28:43;23.60;;;19.53;;
8252;SDS011;61313;48.396;10.008;2023-10-19T09:31:12;23.53;;;19.87;;
8252;SDS011;61313;48.396;10.008;2023-10-19T09:33:40;23.93;;;18.13;;
8252;SDS011;61313;48.396;10.008;2023-10-19T09:36:06;24.80;;;21.30;;
8252;SDS011;61313;48.396;10.008;2023-10-19T09:38:46;21.90;;;19.53;;
8252;SDS011;61313;48.396;10.008;2023-10-19T09:41:22;21.37;;;19.13;;
8252;SDS011;61313;48.396;10.008;2023-10-19T09:43:53;20.17;;;18.17;;
8252;SDS011;61313;48.396;10.008;2023-10-19T09:46:32;22.10;;;19.90;;
8252;SDS011;61313;48.396;10.008;2023-10-19T09:49:01;23.47;;;19.20;;
8252;SDS011;61313;48.396;10.008;2023-10-19T09:51:27;28.60;;;20.17;;
8252;SDS011;61313;48.396;10.008;2023-10-19T09:54:02;20.43;;;18.33;;
8252;SDS011;61313;48.396;10.008;2023-10-19T09:56:38;26.50;;;23.03;;
8252;SDS011;61313;48.396;10.008;2023-10-19T09:59:22;24.90;;;20.07;;
8252;SDS011;61313;48.396;10.008;2023-10-19T10:02:10;23.80;;;19.43;;
8252;SDS011;61313;48.396;10.008;2023-10-19T10:04:40;22.37;;;19.90;;
8252;SDS011;61313;48.396;10.008;2023-10-19T10:07:07;27.00;;;20.57;;
8252;SDS011;61313;48.396;10.008;2023-10-19T10:09:38;22.10;;;19.83;;
8252;SDS011;61313;48.396;10.008;2023-10-19T10:12:20;24.70;;;18.83;;
8252;SDS011;61313;48.396;10.008;2023-10-19T10:17:20;29.73;;;20.50;;
8252;SDS011;61313;48.396;10.008;2023-10-19T10:19:47;32.30;;;21.80;;
8252;SDS011;61313;48.396;10.008;2023-10-19T10:22:13;40.40;;;21.43;;
8252;SDS011;61313;48.396;10.008;2023-10-19T10:24:42;37.87;;;20.50;;
8252;SDS011;61313;48.396;10.008;2023-10-19T10:27:08;28.63;;;21.80;;
8252;SDS011;61313;48.396;10.008;2023-10-19T10:29:35;30.10;;;21.80;;
8252;SDS011;61313;48.396;10.008;2023-10-19T10:32:01;28.60;;;20.70;;
8252;SDS011;61313;48.396;10.008;2023-10-19T10:39:27;24.97;;;21.33;;
8252;SDS011;61313;48.396;10.008;2023-10-19T10:41:56;25.03;;;21.13;;
8252;SDS011;61313;48.396;10.008;2023-10-19T10:44:41;25.50;;;21.00;;
8252;SDS011;61313;48.396;10.008;2023-10-19T10:47:12;25.60;;;21.13;;
8252;SDS011;61313;48.396;10.008;2023-10-19T10:49:46;27.37;;;21.53;;
8252;SDS011;61313;48.396;10.008;2023-10-19T10:54:51;32.20;;;22.27;;
8252;SDS011;61313;48.396;10.008;2023-10-19T10:57:16;48.93;;;24.63;;
8252;SDS011;61313;48.396;10.008;2023-10-19T10:59:42;42.07;;;22.67;;
8252;SDS011;61313;48.396;10.008;2023-10-19T11:02:19;24.63;;;20.23;;
8252;SDS011;61313;48.396;10.008;2023-10-19T11:04:46;22.40;;;19.97;;
8252;SDS011;61313;48.396;10.008;2023-10-19T11:07:18;24.50;;;21.47;;
8252;SDS011;61313;48.396;10.008;2023-10-19T11:09:47;24.07;;;21.60;;
8252;SDS011;61313;48.396;10.008;2023-10-19T11:12:13;23.77;;;21.27;;
8252;SDS011;61313;48.396;10.008;2023-10-19T11:14:53;24.77;;;22.10;;
8252;SDS011;61313;48.396;10.008;2023-10-19T11:17:19;30.57;;;21.23;;
8252;SDS011;61313;48.396;10.008;2023-10-19T11:19:48;30.33;;;22.13;;
8252;SDS011;61313;48.396;10.008;2023-10-19T11:22:14;24.77;;;21.50;;
8252;SDS011;61313;48.396;10.008;2023-10-19T11:24:39;25.87;;;22.13;;
8252;SDS011;61313;48.396;10.008;2023-10-19T11:27:05;25.37;;;22.20;;
8252;SDS011;61313;48.396;10.008;2023-10-19T11:29:32;27.40;;;20.37;;
8252;SDS011;61313;48.396;10.008;2023-10-19T11:32:01;32.53;;;22.30;;
8252;SDS011;61313;48.396;10.008;2023-10-19T11:34:28;27.97;;;22.70;;
8252;SDS011;61313;48.396;10.008;2023-10-19T11:36:56;23.77;;;20.63;;
8252;SDS011;61313;48.396;10.008;2023-10-19T11:39:25;26.20;;;22.70;;
8252;SDS011;61313;48.396;10.008;2023-10-19T11:41:51;28.30;;;22.60;;
8252;SDS011;61313;48.396;10.008;2023-10-19T11:44:18;25.73;;;22.90;;
8252;SDS011;61313;48.396;10.008;2023-10-19T11:46:44;34.33;;;22.07;;
8252;SDS011;61313;48.396;10.008;2023-10-19T11:49:10;36.80;;;23.23;;
8252;SDS011;61313;48.396;10.008;2023-10-19T11:51:36;23.57;;;21.17;;
8252;SDS011;61313;48.396;10.008;2023-10-19T11:54:03;26.57;;;21.87;;
8252;SDS011;61313;48.396;10.008;2023-10-19T11:56:31;23.87;;;21.33;;
8252;SDS011;61313;48.396;10.008;2023-10-19T11:58:56;26.60;;;22.40;;
8252;SDS011;61313;48.396;10.008;2023-10-19T12:01:22;28.83;;;23.43;;
8252;SDS011;61313;48.396;10.008;2023-10-19T12:03:47;27.07;;;21.83;;
8252;SDS011;61313;48.396;10.008;2023-10-19T12:06:13;30.13;;;24.07;;
8252;SDS011;61313;48.396;10.008;2023-10-19T12:08:44;31.10;;;24.13;;
8252;SDS011;61313;48.396;10.008;2023-10-19T12:11:09;32.33;;;22.87;;
8252;SDS011;61313;48.396;10.008;2023-10-19T12:13:42;31.77;;;23.10;;
8252;SDS011;61313;48.396;10.008;2023-10-19T12:16:11;31.57;;;22.70;;
8252;SDS011;61313;48.396;10.008;2023-10-19T12:18:43;26.00;;;22.43;;
8252;SDS011;61313;48.396;10.008;2023-10-19T12:21:08;26.63;;;23.10;;
8252;SDS011;61313;48.396;10.008;2023-10-19T12:23:40;24.17;;;21.60;;
8252;SDS011;61313;48.396;10.008;2023-10-19T12:26:08;23.33;;;20.83;;
8252;SDS011;61313;48.396;10.008;2023-10-19T12:28:37;22.97;;;20.57;;
8252;SDS011;61313;48.396;10.008;2023-10-19T12:31:06;22.63;;;19.20;;
8252;SDS011;61313;48.396;10.008;2023-10-19T12:33:37;23.67;;;20.90;;
8252;SDS011;61313;48.396;10.008;2023-10-19T12:36:03;23.20;;;20.33;;
8252;SDS011;61313;48.396;10.008;2023-10-19T12:38:50;22.67;;;20.37;;
8252;SDS011;61313;48.396;10.008;2023-10-19T12:41:17;28.60;;;22.03;;
8252;SDS011;61313;48.396;10.008;2023-10-19T12:43:44;25.37;;;22.77;;
8252;SDS011;61313;48.396;10.008;2023-10-19T12:46:11;27.70;;;21.53;;
8252;SDS011;61313;48.396;10.008;2023-10-19T12:48:38;30.77;;;22.83;;
8252;SDS011;61313;48.396;10.008;2023-10-19T12:51:04;24.40;;;21.90;;
8252;SDS011;61313;48.396;10.008;2023-10-19T12:53:32;23.70;;;21.10;;
8252;SDS011;61313;48.396;10.008;2023-10-19T12:55:58;29.67;;;23.00;;
8252;SDS011;61313;48.396;10.008;2023-10-19T12:58:24;26.00;;;21.33;;
8252;SDS011;61313;48.396;10.008;2023-10-19T13:00:52;22.40;;;20.03;;
8252;SDS011;61313;48.396;10.008;2023-10-19T13:03:19;24.47;;;21.17;;
8252;SDS011;61313;48.396;10.008;2023-10-19T13:05:45;30.23;;;22.00;;
8252;SDS011;61313;48.396;10.008;2023-10-19T13:08:12;23.33;;;20.83;;
8252;SDS011;61313;48.396;10.008;2023-10-19T13:10:43;24.50;;;20.53;;
8252;SDS011;61313;48.396;10.008;2023-10-19T13:13:12;24.87;;;22.20;;
8252;SDS011;61313;48.396;10.008;2023-10-19T13:15:40;26.40;;;22.10;;
8252;SDS011;61313;48.396;10.008;2023-10-19T13:18:07;30.27;;;26.80;;
8252;SDS011;61313;48.396;10.008;2023-10-19T13:20:38;42.50;;;37.90;;
8252;SDS011;61313;48.396;10.008;2023-10-19T13:23:08;44.00;;;39.20;;
8252;SDS011;61313;48.396;10.008;2023-10-19T13:25:37;44.07;;;39.30;;
8252;SDS011;61313;48.396;10.008;2023-10-19T13:28:10;44.17;;;39.13;;
8252;SDS011;61313;48.396;10.008;2023-10-19T13:30:36;41.00;;;36.67;;
8252;SDS011;61313;48.396;10.008;2023-10-19T13:33:06;45.13;;;37.47;;
8252;SDS011;61313;48.396;10.008;2023-10-19T13:35:38;42.67;;;38.03;;
8252;SDS011;61313;48.396;10.008;2023-10-19T13:38:05;43.70;;;36.90;;
8252;SDS011;61313;48.396;10.008;2023-10-19T13:40:32;46.70;;;37.93;;
8252;SDS011;61313;48.396;10.008;2023-10-19T13:42:58;41.97;;;35.67;;
8252;SDS011;61313;48.396;10.008;2023-10-19T13:45:24;40.83;;;35.37;;
8252;SDS011;61313;48.396;10.008;2023-10-19T13:47:50;44.00;;;36.43;;
8252;SDS011;61313;48.396;10.008;2023-10-19T13:50:19;40.33;;;36.07;;
8252;SDS011;61313;48.396;10.008;2023-10-19T13:52:48;39.17;;;34.90;;
8252;SDS011;61313;48.396;10.008;2023-10-19T13:55:15;36.50;;;32.47;;
8252;SDS011;61313;48.396;10.008;2023-10-19T13:57:43;52.23;;;33.80;;
8252;SDS011;61313;48.396;10.008;2023-10-19T14:00:10;43.27;;;34.30;;
8252;SDS011;61313;48.396;10.008;2023-10-19T14:02:44;44.77;;;37.20;;
8252;SDS011;61313;48.396;10.008;2023-10-19T14:05:10;43.50;;;35.60;;
8252;SDS011;61313;48.396;10.008;2023-10-19T14:07:36;40.63;;;34.57;;
8252;SDS011;61313;48.396;10.008;2023-10-19T14:10:04;39.73;;;34.77;;
8252;SDS011;61313;48.396;10.008;2023-10-19T14:12:32;40.03;;;35.60;;
8252;SDS011;61313;48.396;10.008;2023-10-19T14:14:58;37.50;;;32.50;;
8252;SDS011;61313;48.396;10.008;2023-10-19T14:17:23;34.90;;;28.73;;
8252;SDS011;61313;48.396;10.008;2023-10-19T14:19:50;33.80;;;30.20;;
8252;SDS011;61313;48.396;10.008;2023-10-19T14:22:16;32.80;;;28.73;;
8252;SDS011;61313;48.396;10.008;2023-10-19T14:24:42;34.03;;;30.33;;
8252;SDS011;61313;48.396;10.008;2023-10-19T14:27:08;34.10;;;28.27;;
8252;SDS011;61313;48.396;10.008;2023-10-19T14:29:34;36.43;;;31.43;;
8252;SDS011;61313;48.396;10.008;2023-10-19T14:31:59;35.87;;;30.80;;
8252;SDS011;61313;48.396;10.008;2023-10-19T14:34:25;34.23;;;29.50;;
8252;SDS011;61313;48.396;10.008;2023-10-19T14:36:52;36.47;;;31.70;;
8252;SDS011;61313;48.396;10.008;2023-10-19T14:39:18;35.33;;;30.70;;